createdAt,value
2023-01-10T00:00:19.029Z,5.40
2023-01-10T00:01:19.003Z,5.40
2023-01-10T00:02:19.007Z,5.40
2023-01-10T00:03:18.942Z,5.33
2023-01-10T00:04:18.944Z,5.38
2023-01-10T00:05:18.927Z,5.33
2023-01-10T00:06:18.891Z,5.35
2023-01-10T00:07:18.916Z,5.33
2023-01-10T00:08:18.865Z,5.39
2023-01-10T00:09:18.924Z,5.28
2023-01-10T00:10:18.851Z,5.28
2023-01-10T00:11:18.829Z,5.28
2023-01-10T00:12:18.834Z,5.30
2023-01-10T00:13:18.802Z,5.25
2023-01-10T00:14:18.800Z,5.31
2023-01-10T00:15:18.759Z,5.33
2023-01-10T00:16:18.817Z,5.40
2023-01-10T00:17:18.757Z,5.43
2023-01-10T00:18:18.787Z,5.39
2023-01-10T00:19:18.771Z,5.43
2023-01-10T00:20:18.699Z,5.42
2023-01-10T00:21:18.684Z,5.36
2023-01-10T00:37:55.147Z,5.43
2023-01-10T00:38:53.738Z,5.45
2023-01-10T00:39:53.747Z,5.43
2023-01-10T00:40:53.689Z,5.45
2023-01-10T00:41:53.686Z,5.46
2023-01-10T00:42:53.729Z,5.43
2023-01-10T00:43:53.703Z,5.39
2023-01-10T00:44:53.661Z,5.39
2023-01-10T00:45:53.670Z,5.40
2023-01-10T00:46:53.631Z,5.38
2023-01-10T00:47:53.633Z,5.30
2023-01-10T00:48:53.622Z,5.22
2023-01-10T00:49:53.577Z,5.22
2023-01-10T00:50:53.567Z,5.17
2023-01-10T00:51:53.568Z,5.25
2023-01-10T00:52:53.597Z,5.22
2023-01-10T00:53:53.528Z,5.21
2023-01-10T00:54:53.554Z,5.21
2023-01-10T00:55:53.520Z,5.21
2023-01-10T00:57:03.559Z,5.20
2023-01-10T00:57:53.506Z,5.22
2023-01-10T00:58:53.450Z,5.27
2023-01-10T00:59:53.464Z,5.33
2023-01-10T01:00:53.492Z,5.40
2023-01-10T01:01:53.564Z,5.43
2023-01-10T01:02:53.429Z,5.48
2023-01-10T01:03:53.427Z,5.53
2023-01-10T01:04:53.407Z,5.53
2023-01-10T01:05:53.369Z,5.56
2023-01-10T01:06:53.392Z,5.54
2023-01-10T01:07:53.379Z,5.58
2023-01-10T01:08:53.350Z,5.56
2023-01-10T01:09:53.295Z,5.57
2023-01-10T01:10:53.299Z,5.58
2023-01-10T01:11:53.288Z,5.60
2023-01-10T01:12:53.271Z,5.61
2023-01-10T01:13:53.273Z,5.61
2023-01-10T01:14:53.289Z,5.64
2023-01-10T01:15:53.261Z,5.65
2023-01-10T01:16:53.218Z,5.64
2023-01-10T01:17:53.241Z,5.68
2023-01-10T01:18:53.209Z,5.75
2023-01-10T01:19:53.189Z,5.78
2023-01-10T01:20:53.191Z,5.75
2023-01-10T01:21:53.181Z,5.76
2023-01-10T01:22:53.145Z,5.78
2023-01-10T01:23:53.125Z,5.81
2023-01-10T01:24:53.126Z,5.83
2023-01-10T01:25:53.127Z,5.85
2023-01-10T01:26:53.093Z,5.93
2023-01-10T01:27:53.069Z,6.00
2023-01-10T01:28:53.077Z,6.01
2023-01-10T01:29:53.075Z,6.03
2023-01-10T01:30:53.105Z,6.06
2023-01-10T01:31:53.037Z,6.06
2023-01-10T01:32:53.035Z,6.06
2023-01-10T01:33:53.032Z,6.09
2023-01-10T01:34:52.986Z,6.14
2023-01-10T01:35:52.992Z,6.15
2023-01-10T01:36:52.953Z,6.14
2023-01-10T01:37:53.018Z,6.15
2023-01-10T01:38:52.973Z,6.17
2023-01-10T01:39:52.923Z,6.15
2023-01-10T01:40:52.921Z,6.21
2023-01-10T01:41:52.935Z,6.17
2023-01-10T01:42:52.932Z,6.17
2023-01-10T01:43:52.866Z,6.18
2023-01-10T01:44:52.875Z,6.17
2023-01-10T01:45:52.872Z,6.15
2023-01-10T01:46:52.879Z,6.21
2023-01-10T01:47:52.847Z,6.28
2023-01-10T01:48:52.801Z,6.25
2023-01-10T01:49:52.835Z,6.30
2023-01-10T01:50:52.793Z,6.30
2023-01-10T01:51:52.768Z,6.30
2023-01-10T01:52:52.805Z,6.27
2023-01-10T01:53:52.737Z,6.30
2023-01-10T01:54:52.716Z,6.34
2023-01-10T01:55:52.876Z,6.28
2023-01-10T01:56:52.717Z,6.31
2023-01-10T01:57:52.689Z,6.28
2023-01-10T01:58:52.666Z,6.25
2023-01-10T01:59:52.678Z,6.25
2023-01-10T02:00:52.701Z,6.22
2023-01-10T02:01:52.714Z,6.18
2023-01-10T02:03:02.136Z,6.19
2023-01-10T02:03:53.739Z,6.22
2023-01-10T02:04:52.612Z,6.28
2023-01-10T02:05:52.607Z,6.22
2023-01-10T02:06:52.573Z,6.31
2023-01-10T02:07:52.659Z,6.27
2023-01-10T02:08:52.593Z,6.30
2023-01-10T02:09:52.555Z,6.31
2023-01-10T02:10:52.586Z,6.31
2023-01-10T02:11:52.512Z,6.34
2023-01-10T02:12:52.501Z,6.37
2023-01-10T02:13:52.521Z,6.41
2023-01-10T02:14:52.510Z,6.37
2023-01-10T02:15:52.455Z,6.36
2023-01-10T02:16:52.474Z,6.40
2023-01-10T02:17:52.449Z,6.36
2023-01-10T02:18:52.419Z,6.40
2023-01-10T02:19:52.433Z,6.36
2023-01-10T02:20:52.474Z,6.38
2023-01-10T02:21:52.408Z,6.36
2023-01-10T02:22:52.446Z,6.34
2023-01-10T02:23:52.339Z,6.34
2023-01-10T02:24:52.407Z,6.31
2023-01-10T02:25:52.327Z,6.22
2023-01-10T02:26:52.357Z,6.14
2023-01-10T02:27:52.321Z,6.14
2023-01-10T02:28:52.301Z,6.08
2023-01-10T02:29:52.272Z,5.97
2023-01-10T02:30:52.317Z,5.94
2023-01-10T02:31:52.311Z,5.99
2023-01-10T02:33:04.253Z,6.00
2023-01-10T02:33:53.229Z,5.99
2023-01-10T02:34:52.255Z,5.96
2023-01-10T02:35:52.199Z,5.93
2023-01-10T02:36:52.212Z,5.86
2023-01-10T02:37:52.168Z,5.81
2023-01-10T02:38:52.157Z,5.76
2023-01-10T02:39:52.129Z,5.71
2023-01-10T02:40:52.141Z,5.67
2023-01-10T02:41:52.128Z,5.68
2023-01-10T02:42:52.148Z,5.67
2023-01-10T02:43:52.082Z,5.76
2023-01-10T02:44:52.093Z,5.79
2023-01-10T02:45:52.095Z,5.79
2023-01-10T02:46:52.120Z,5.79
2023-01-10T02:47:52.034Z,5.82
2023-01-10T02:48:52.049Z,5.81
2023-01-10T02:49:52.018Z,5.79
2023-01-10T02:50:51.997Z,5.78
2023-01-10T02:51:51.998Z,5.79
2023-01-10T02:52:52.147Z,5.79
2023-01-10T02:53:51.959Z,5.81
2023-01-10T02:54:51.938Z,5.81
2023-01-10T02:55:51.922Z,5.82
2023-01-10T02:56:51.946Z,5.85
2023-01-10T02:57:51.900Z,5.91
2023-01-10T02:58:51.919Z,5.93
2023-01-10T02:59:51.885Z,5.94
2023-01-10T03:00:51.894Z,5.99
2023-01-10T03:01:51.935Z,6.01
2023-01-10T03:02:51.843Z,6.00
2023-01-10T03:03:51.822Z,6.00
2023-01-10T03:04:51.930Z,6.04
2023-01-10T03:05:51.788Z,6.11
2023-01-10T03:06:51.805Z,6.11
2023-01-10T03:07:51.810Z,6.08
2023-01-10T03:08:51.814Z,6.04
2023-01-10T03:09:51.743Z,6.06
2023-01-10T03:10:51.738Z,6.04
2023-01-10T03:11:51.745Z,5.99
2023-01-10T03:12:51.708Z,6.01
2023-01-10T03:13:51.898Z,6.01
2023-01-10T03:14:51.676Z,6.00
2023-01-10T03:15:51.691Z,5.97
2023-01-10T03:16:51.659Z,6.00
2023-01-10T03:17:51.691Z,5.99
2023-01-10T03:18:51.659Z,6.00
2023-01-10T03:19:51.623Z,6.01
2023-01-10T03:20:51.627Z,6.00
2023-01-10T03:21:51.609Z,5.99
2023-01-10T03:22:51.584Z,5.91
2023-01-10T03:23:51.550Z,5.90
2023-01-10T03:24:51.562Z,5.83
2023-01-10T03:25:51.730Z,5.85
2023-01-10T03:26:51.531Z,5.78
2023-01-10T03:27:51.501Z,5.74
2023-01-10T03:28:51.540Z,5.72
2023-01-10T03:29:51.493Z,5.67
2023-01-10T03:30:51.473Z,5.67
2023-01-10T03:31:51.460Z,5.65
2023-01-10T03:32:51.459Z,5.63
2023-01-10T03:33:51.434Z,5.63
2023-01-10T03:34:51.417Z,5.61
2023-01-10T03:35:51.392Z,5.57
2023-01-10T03:36:51.426Z,5.54
2023-01-10T03:37:51.424Z,5.48
2023-01-10T03:38:51.363Z,5.45
2023-01-10T03:39:51.352Z,5.45
2023-01-10T03:40:51.347Z,5.45
2023-01-10T03:41:51.335Z,5.39
2023-01-10T03:42:51.324Z,5.38
2023-01-10T03:43:51.309Z,5.36
2023-01-10T03:44:51.318Z,5.31
2023-01-10T03:45:51.304Z,5.31
2023-01-10T03:46:51.287Z,5.33
2023-01-10T03:47:51.299Z,5.31
2023-01-10T03:48:51.231Z,5.25
2023-01-10T03:49:51.224Z,5.27
2023-01-10T03:50:51.233Z,5.25
2023-01-10T03:51:51.190Z,5.28
2023-01-10T03:52:51.221Z,5.24
2023-01-10T03:53:51.264Z,5.24
2023-01-10T03:54:51.189Z,5.20
2023-01-10T03:55:51.154Z,5.15
2023-01-10T03:56:51.138Z,5.15
2023-01-10T03:57:51.129Z,5.15
2023-01-10T03:58:51.100Z,5.12
2023-01-10T03:59:51.132Z,5.20
2023-01-10T04:00:51.167Z,5.20
2023-01-10T04:01:51.162Z,5.20
2023-01-10T04:02:51.062Z,5.20
2023-01-10T04:03:51.118Z,5.20
2023-01-10T04:04:51.030Z,5.12
2023-01-10T04:05:51.041Z,5.13
2023-01-10T04:06:51.030Z,5.09
2023-01-10T04:07:51.029Z,5.07
2023-01-10T04:08:50.980Z,5.04
2023-01-10T04:09:50.954Z,5.07
2023-01-10T04:10:51.001Z,5.09
2023-01-10T04:11:50.920Z,5.13
2023-01-10T04:12:50.951Z,5.18
2023-01-10T04:13:50.918Z,5.20
2023-01-10T04:14:50.918Z,5.21
2023-01-10T04:15:50.970Z,5.24
2023-01-10T04:16:50.944Z,5.25
2023-01-10T04:17:50.934Z,5.28
2023-01-10T04:18:50.838Z,5.30
2023-01-10T04:19:50.825Z,5.35
2023-01-10T04:20:52.271Z,5.35
2023-01-10T04:21:50.799Z,5.36
2023-01-10T04:22:50.806Z,5.30
2023-01-10T04:23:50.787Z,5.33
2023-01-10T04:24:50.762Z,5.28
2023-01-10T04:25:50.825Z,5.27
2023-01-10T04:26:50.745Z,5.30
2023-01-10T04:27:50.742Z,5.36
2023-01-10T04:28:50.715Z,5.35
2023-01-10T04:29:50.715Z,5.38
2023-01-10T04:30:50.694Z,5.40
2023-01-10T04:31:50.737Z,5.43
2023-01-10T04:32:50.661Z,5.40
2023-01-10T04:33:50.695Z,5.38
2023-01-10T04:34:50.668Z,5.42
2023-01-10T04:35:50.667Z,5.42
2023-01-10T04:36:50.806Z,5.45
2023-01-10T04:37:50.581Z,5.39
2023-01-10T04:38:50.587Z,5.38
2023-01-10T04:39:50.578Z,5.39
2023-01-10T04:40:50.543Z,5.40
2023-01-10T04:41:50.540Z,5.45
2023-01-10T04:42:50.553Z,5.46
2023-01-10T04:43:50.504Z,5.51
2023-01-10T04:44:50.490Z,5.54
2023-01-10T04:45:50.587Z,5.53
2023-01-10T04:46:50.506Z,5.56
2023-01-10T04:47:50.471Z,5.51
2023-01-10T04:48:50.454Z,5.53
2023-01-10T04:49:50.476Z,5.46
2023-01-10T04:50:50.439Z,5.46
2023-01-10T04:51:50.415Z,5.46
2023-01-10T04:52:50.424Z,5.46
2023-01-10T04:53:50.389Z,5.43
2023-01-10T04:54:50.371Z,5.45
2023-01-10T04:55:50.377Z,5.40
2023-01-10T04:56:50.332Z,5.43
2023-01-10T04:57:50.315Z,5.38
2023-01-10T04:58:52.991Z,5.28
2023-01-10T04:59:50.306Z,5.22
2023-01-10T05:00:50.334Z,5.24
2023-01-10T05:01:50.420Z,5.15
2023-01-10T05:02:50.381Z,5.10
2023-01-10T05:04:01.346Z,5.06
2023-01-10T05:04:57.820Z,5.02
2023-01-10T05:05:50.212Z,5.03
2023-01-10T05:06:50.198Z,4.97
2023-01-10T05:07:50.189Z,4.96
2023-01-10T05:08:50.194Z,4.94
2023-01-10T05:09:50.175Z,4.94
2023-01-10T05:10:50.146Z,4.92
2023-01-10T05:11:50.135Z,4.94
2023-01-10T05:12:50.147Z,4.89
2023-01-10T05:13:50.114Z,4.89
2023-01-10T05:14:50.094Z,4.89
2023-01-10T05:15:50.085Z,4.85
2023-01-10T05:16:50.162Z,4.84
2023-01-10T05:17:50.105Z,4.80
2023-01-10T05:18:50.050Z,4.82
2023-01-10T05:19:50.048Z,4.78
2023-01-10T05:20:50.042Z,4.77
2023-01-10T05:21:50.022Z,4.75
2023-01-10T05:22:50.021Z,4.72
2023-01-10T05:23:49.979Z,4.69
2023-01-10T05:24:49.963Z,4.70
2023-01-10T05:25:49.944Z,4.70
2023-01-10T05:26:49.964Z,4.69
2023-01-10T05:27:49.940Z,4.65
2023-01-10T05:28:49.944Z,4.65
2023-01-10T05:29:49.891Z,4.69
2023-01-10T05:30:49.883Z,4.67
2023-01-10T05:31:50.032Z,4.66
2023-01-10T05:32:49.930Z,4.67
2023-01-10T05:33:49.897Z,4.69
2023-01-10T05:34:49.835Z,4.73
2023-01-10T05:35:49.821Z,4.69
2023-01-10T05:36:49.815Z,4.73
2023-01-10T05:37:49.809Z,4.72
2023-01-10T05:38:49.779Z,4.73
2023-01-10T05:39:49.796Z,4.69
2023-01-10T05:40:49.753Z,4.70
2023-01-10T05:41:49.752Z,4.70
2023-01-10T05:42:49.754Z,4.67
2023-01-10T05:43:49.742Z,4.65
2023-01-10T05:44:49.695Z,4.70
2023-01-10T05:45:49.781Z,4.67
2023-01-10T05:46:49.688Z,4.63
2023-01-10T05:47:49.678Z,4.63
2023-01-10T05:48:49.708Z,4.60
2023-01-10T05:49:49.640Z,4.52
2023-01-10T05:50:49.651Z,4.52
2023-01-10T05:51:49.608Z,4.47
2023-01-10T05:52:49.602Z,4.50
2023-01-10T05:53:50.356Z,4.42
2023-01-10T05:54:49.583Z,4.37
2023-01-10T05:55:49.586Z,4.41
2023-01-10T05:56:49.543Z,4.40
2023-01-10T05:57:49.534Z,4.42
2023-01-10T05:58:57.018Z,4.33
2023-01-10T05:59:50.506Z,4.29
2023-01-10T06:00:49.485Z,4.24
2023-01-10T06:01:49.543Z,4.24
2023-01-10T06:02:49.614Z,4.23
2023-01-10T06:03:49.453Z,4.24
2023-01-10T06:04:49.434Z,4.20
2023-01-10T06:05:49.422Z,4.16
2023-01-10T06:06:49.427Z,4.12
2023-01-10T06:07:49.442Z,4.11
2023-01-10T06:08:49.375Z,4.12
2023-01-10T06:09:49.376Z,4.12
2023-01-10T06:10:49.356Z,4.14
2023-01-10T06:11:49.339Z,4.11
2023-01-10T06:12:49.336Z,4.14
2023-01-10T06:13:49.306Z,4.15
2023-01-10T06:14:49.297Z,4.16
2023-01-10T06:15:49.314Z,4.15
2023-01-10T06:16:49.281Z,4.18
2023-01-10T06:17:49.255Z,4.12
2023-01-10T06:18:49.267Z,4.15
2023-01-10T06:19:49.240Z,4.15
2023-01-10T06:20:49.223Z,4.14
2023-01-10T06:21:49.218Z,4.12
2023-01-10T06:22:49.215Z,4.11
2023-01-10T06:23:49.201Z,4.18
2023-01-10T06:24:49.172Z,4.30
2023-01-10T06:25:49.153Z,4.29
2023-01-10T06:26:49.131Z,4.27
2023-01-10T06:27:49.129Z,4.30
2023-01-10T06:28:49.136Z,4.32
2023-01-10T06:29:49.142Z,4.27
2023-01-10T06:30:49.083Z,4.32
2023-01-10T06:31:49.095Z,4.29
2023-01-10T06:32:49.069Z,4.24
2023-01-10T06:33:49.069Z,4.29
2023-01-10T06:34:49.057Z,4.29
2023-01-10T06:35:49.060Z,4.30
2023-01-10T06:36:49.007Z,4.24
2023-01-10T06:37:49.014Z,4.26
2023-01-10T06:38:49.069Z,4.26
2023-01-10T06:39:48.970Z,4.32
2023-01-10T06:40:48.981Z,4.34
2023-01-10T06:41:48.977Z,4.36
2023-01-10T06:42:48.947Z,4.36
2023-01-10T06:43:48.944Z,4.44
2023-01-10T06:44:48.915Z,4.45
2023-01-10T06:45:48.919Z,4.54
2023-01-10T06:46:48.950Z,4.62
2023-01-10T06:47:48.872Z,4.67
2023-01-10T06:48:48.849Z,4.70
2023-01-10T06:49:48.839Z,4.77
2023-01-10T06:50:48.913Z,4.82
2023-01-10T06:51:48.832Z,4.84
2023-01-10T06:52:48.862Z,4.88
2023-01-10T06:53:56.604Z,4.86
2023-01-10T06:54:48.790Z,4.96
2023-01-10T06:55:48.813Z,4.97
2023-01-10T06:56:48.784Z,4.94
2023-01-10T06:57:48.754Z,5.00
2023-01-10T06:58:48.745Z,5.02
2023-01-10T06:59:56.309Z,5.06
2023-01-10T07:00:48.762Z,5.03
2023-01-10T07:01:48.916Z,5.06
2023-01-10T07:02:48.823Z,5.10
2023-01-10T07:03:49.041Z,5.13
2023-01-10T07:04:48.826Z,5.15
2023-01-10T07:05:48.738Z,5.18
2023-01-10T07:06:48.673Z,5.15
2023-01-10T07:07:48.785Z,5.17
2023-01-10T07:08:48.613Z,5.17
2023-01-10T07:09:48.634Z,5.20
2023-01-10T07:10:48.646Z,5.15
2023-01-10T07:11:48.582Z,5.17
2023-01-10T07:12:48.623Z,5.20
2023-01-10T07:13:48.553Z,5.21
2023-01-10T07:14:48.545Z,5.20
2023-01-10T07:15:48.555Z,5.20
2023-01-10T07:16:48.622Z,5.17
2023-01-10T07:17:48.509Z,5.18
2023-01-10T07:18:48.539Z,5.17
2023-01-10T07:19:48.601Z,5.18
2023-01-10T07:20:48.575Z,5.15
2023-01-10T07:21:48.603Z,5.15
2023-01-10T07:22:48.574Z,5.09
2023-01-10T07:23:48.432Z,5.09
2023-01-10T07:24:48.449Z,5.12
2023-01-10T07:25:48.478Z,5.13
2023-01-10T07:26:48.374Z,5.12
2023-01-10T07:27:48.396Z,5.15
2023-01-10T07:28:48.370Z,5.15
2023-01-10T07:29:48.375Z,5.13
2023-01-10T07:30:48.343Z,5.15
2023-01-10T07:31:48.836Z,5.17
2023-01-10T07:32:48.290Z,5.12
2023-01-10T07:33:48.315Z,5.15
2023-01-10T07:34:48.403Z,5.17
2023-01-10T07:35:48.271Z,5.17
2023-01-10T07:36:48.295Z,5.18
2023-01-10T07:37:48.271Z,5.18
2023-01-10T07:38:48.289Z,5.21
2023-01-10T07:39:48.913Z,5.24
2023-01-10T07:40:48.189Z,5.27
2023-01-10T07:41:48.185Z,5.24
2023-01-10T07:42:48.193Z,5.27
2023-01-10T07:43:48.153Z,5.30
2023-01-10T07:44:49.584Z,5.33
2023-01-10T07:45:48.149Z,5.31
2023-01-10T07:46:48.212Z,5.38
2023-01-10T07:47:48.114Z,5.40
2023-01-10T07:48:48.112Z,5.38
2023-01-10T07:49:48.071Z,5.36
2023-01-10T07:50:48.092Z,5.38
2023-01-10T07:51:48.079Z,5.38
2023-01-10T07:52:48.463Z,5.40
2023-01-10T07:53:48.084Z,5.43
2023-01-10T07:54:48.018Z,5.45
2023-01-10T07:55:48.074Z,5.48
2023-01-10T07:56:48.017Z,5.46
2023-01-10T07:57:48.009Z,5.48
2023-01-10T07:58:47.992Z,5.48
2023-01-10T07:59:47.962Z,5.51
2023-01-10T08:00:48.039Z,5.53
2023-01-10T08:01:47.966Z,5.51
2023-01-10T08:02:47.986Z,5.54
2023-01-10T08:03:47.935Z,5.58
2023-01-10T08:04:47.875Z,5.57
2023-01-10T08:05:47.885Z,5.56
2023-01-10T08:06:47.898Z,5.58
2023-01-10T08:07:47.824Z,5.61
2023-01-10T08:08:47.909Z,5.61
2023-01-10T08:09:47.972Z,5.61
2023-01-10T08:10:47.854Z,5.63
2023-01-10T08:11:48.013Z,5.67
2023-01-10T08:12:47.793Z,5.68
2023-01-10T08:13:47.835Z,5.71
2023-01-10T08:14:47.868Z,5.67
2023-01-10T08:15:47.762Z,5.76
2023-01-10T08:16:47.784Z,5.72
2023-01-10T08:17:47.791Z,5.74
2023-01-10T08:18:47.868Z,5.75
2023-01-10T08:19:47.707Z,5.75
2023-01-10T08:20:48.071Z,5.74
2023-01-10T08:21:47.657Z,5.71
2023-01-10T08:22:47.659Z,5.78
2023-01-10T08:23:47.645Z,5.76
2023-01-10T08:24:47.745Z,5.76
2023-01-10T08:25:47.655Z,5.78
2023-01-10T08:26:47.724Z,5.76
2023-01-10T08:27:47.585Z,5.76
2023-01-10T08:28:47.559Z,5.79
2023-01-10T08:29:48.176Z,5.75
2023-01-10T08:30:50.221Z,5.74
2023-01-10T08:31:47.559Z,5.75
2023-01-10T08:32:47.994Z,5.74
2023-01-10T08:33:47.547Z,5.71
2023-01-10T08:34:48.134Z,5.71
2023-01-10T08:35:47.526Z,5.61
2023-01-10T08:36:47.479Z,5.63
2023-01-10T08:37:47.563Z,5.61
2023-01-10T08:38:47.441Z,5.64
2023-01-10T08:39:47.422Z,5.68
2023-01-10T08:40:47.446Z,5.64
2023-01-10T08:41:47.453Z,5.63
2023-01-10T08:42:47.444Z,5.63
2023-01-10T08:43:47.436Z,5.71
2023-01-10T08:44:47.346Z,5.72
2023-01-10T08:45:47.339Z,5.72
2023-01-10T08:46:47.385Z,5.78
2023-01-10T08:47:47.313Z,5.76
2023-01-10T08:48:47.314Z,5.81
2023-01-10T08:49:47.291Z,5.79
2023-01-10T08:50:47.310Z,5.82
2023-01-10T08:51:47.267Z,5.81
2023-01-10T08:52:47.245Z,5.79
2023-01-10T08:53:47.245Z,5.78
2023-01-10T08:54:47.228Z,5.78
2023-01-10T08:55:47.231Z,5.89
2023-01-10T08:56:47.194Z,6.09
2023-01-10T08:57:47.175Z,6.28
2023-01-10T08:58:47.163Z,6.40
2023-01-10T08:59:47.154Z,6.36
2023-01-10T09:00:47.191Z,6.37
2023-01-10T09:01:47.242Z,6.31
2023-01-10T09:02:47.169Z,6.36
2023-01-10T09:03:47.107Z,6.36
2023-01-10T09:04:47.094Z,6.41
2023-01-10T09:05:47.085Z,6.38
2023-01-10T09:06:47.072Z,6.44
2023-01-10T09:07:47.048Z,6.55
2023-01-10T09:08:47.037Z,6.52
2023-01-10T09:09:47.029Z,6.49
2023-01-10T09:10:47.006Z,6.40
2023-01-10T09:11:46.996Z,6.38
2023-01-10T09:12:46.989Z,6.34
2023-01-10T09:13:46.973Z,6.34
2023-01-10T09:14:46.973Z,6.33
2023-01-10T09:15:46.993Z,6.19
2023-01-10T09:16:46.927Z,6.17
2023-01-10T09:17:46.957Z,6.19
2023-01-10T09:18:46.898Z,6.21
2023-01-10T09:19:46.914Z,6.27
2023-01-10T09:20:46.930Z,6.36
2023-01-10T09:21:46.881Z,6.41
2023-01-10T09:22:46.860Z,6.40
2023-01-10T09:23:46.866Z,6.43
2023-01-10T09:24:46.832Z,6.44
2023-01-10T09:25:46.810Z,6.41
2023-01-10T09:26:46.795Z,6.52
2023-01-10T09:27:46.791Z,6.64
2023-01-10T09:28:48.798Z,6.67
2023-01-10T09:29:46.755Z,6.71
2023-01-10T09:30:46.757Z,6.66
2023-01-10T09:31:46.782Z,6.62
2023-01-10T09:32:46.716Z,6.61
2023-01-10T09:33:47.597Z,6.67
2023-01-10T09:34:46.692Z,6.81
2023-01-10T09:35:46.710Z,6.77
2023-01-10T09:36:46.676Z,6.77
2023-01-10T09:37:46.652Z,6.84
2023-01-10T09:38:46.654Z,6.95
2023-01-10T09:39:46.643Z,7.05
2023-01-10T09:40:46.622Z,7.02
2023-01-10T09:41:46.609Z,7.05
2023-01-10T09:42:46.612Z,7.02
2023-01-10T09:43:46.578Z,6.97
2023-01-10T09:44:46.568Z,6.97
2023-01-10T09:45:46.561Z,6.98
2023-01-10T09:46:46.623Z,6.98
2023-01-10T09:47:46.529Z,6.97
2023-01-10T09:48:46.517Z,7.07
2023-01-10T09:49:46.496Z,7.25
2023-01-10T09:50:46.483Z,7.27
2023-01-10T09:51:46.498Z,7.34
2023-01-10T09:52:46.471Z,7.48
2023-01-10T09:53:46.455Z,7.48
2023-01-10T09:54:46.454Z,7.42
2023-01-10T09:55:46.424Z,7.45
2023-01-10T09:56:46.437Z,7.55
2023-01-10T09:57:46.434Z,7.53
2023-01-10T09:58:46.390Z,7.71
2023-01-10T09:59:46.378Z,7.97
2023-01-10T10:00:46.366Z,8.00
2023-01-10T10:01:46.370Z,7.95
2023-01-10T10:02:46.342Z,8.08
2023-01-10T10:03:46.439Z,8.23
2023-01-10T10:04:46.309Z,8.47
2023-01-10T10:05:46.377Z,8.68
2023-01-10T10:06:49.174Z,8.62
2023-01-10T10:07:46.297Z,8.63
2023-01-10T10:08:46.265Z,8.65
2023-01-10T10:09:46.258Z,8.81
2023-01-10T10:10:46.237Z,8.70
2023-01-10T10:11:46.221Z,8.47
2023-01-10T10:12:46.232Z,8.61
2023-01-10T10:13:46.227Z,8.47
2023-01-10T10:14:46.209Z,8.19
2023-01-10T10:15:46.186Z,8.07
2023-01-10T10:16:46.203Z,7.80
2023-01-10T10:17:46.191Z,7.68
2023-01-10T10:18:46.172Z,7.74
2023-01-10T10:19:46.170Z,7.68
2023-01-10T10:20:46.131Z,7.71
2023-01-10T10:21:46.103Z,7.68
2023-01-10T10:22:46.106Z,7.80
2023-01-10T10:23:46.106Z,7.83
2023-01-10T10:24:46.151Z,7.72
2023-01-10T10:25:46.070Z,7.61
2023-01-10T10:26:46.047Z,7.55
2023-01-10T10:27:46.038Z,7.75
2023-01-10T10:28:53.991Z,7.86
2023-01-10T10:29:47.035Z,7.74
2023-01-10T10:30:46.005Z,7.75
2023-01-10T10:31:46.049Z,7.67
2023-01-10T12:11:38.264Z,8.15
2023-01-10T12:12:38.226Z,8.15
2023-01-10T12:13:38.229Z,8.15
2023-01-10T12:14:38.206Z,8.19
2023-01-10T12:15:38.257Z,8.22
2023-01-10T12:16:38.269Z,8.26
2023-01-10T12:17:38.216Z,8.28
2023-01-10T12:18:38.228Z,8.29
2023-01-10T12:19:38.135Z,8.34
2023-01-10T12:20:38.141Z,8.37
2023-01-10T12:21:38.108Z,8.30
2023-01-10T12:22:38.121Z,8.34
2023-01-10T12:23:38.082Z,8.37
2023-01-10T12:24:38.078Z,8.33
2023-01-10T12:25:38.067Z,8.40
2023-01-10T12:26:38.049Z,8.43
2023-01-10T12:27:38.056Z,8.45
2023-01-10T12:28:38.035Z,8.50
2023-01-10T12:29:38.010Z,8.56
2023-01-10T12:30:38.006Z,8.61
2023-01-10T12:31:38.006Z,8.65
2023-01-10T12:32:38.074Z,8.68
2023-01-10T12:33:37.983Z,8.66
2023-01-10T12:34:37.963Z,8.68
2023-01-10T12:35:37.944Z,8.71
2023-01-10T12:36:37.934Z,8.71
2023-01-10T12:37:37.934Z,8.73
2023-01-10T12:38:37.915Z,8.76
2023-01-10T12:39:37.922Z,8.74
2023-01-10T12:40:37.872Z,8.77
2023-01-10T12:41:37.868Z,8.77
2023-01-10T12:42:37.856Z,8.79
2023-01-10T12:43:37.843Z,8.81
2023-01-10T12:44:37.829Z,8.83
2023-01-10T12:45:37.837Z,8.79
2023-01-10T12:47:04.773Z,8.81
2023-01-10T12:47:38.838Z,8.84
2023-01-10T12:48:37.774Z,8.87
2023-01-10T12:49:37.778Z,8.91
2023-01-10T12:50:37.776Z,8.91
2023-01-10T12:51:37.757Z,8.94
2023-01-10T12:52:37.729Z,8.92
2023-01-10T12:53:37.748Z,8.92
2023-01-10T12:54:37.744Z,8.91
2023-01-10T12:55:37.682Z,8.89
2023-01-10T12:56:37.670Z,8.86
2023-01-10T12:57:37.701Z,8.87
2023-01-10T12:58:37.650Z,8.91
2023-01-10T12:59:47.664Z,8.92
2023-01-10T13:00:47.190Z,8.87
2023-01-10T13:01:38.659Z,8.86
2023-01-10T13:02:37.584Z,8.87
2023-01-10T13:03:37.624Z,8.87
2023-01-10T13:04:37.574Z,8.92
2023-01-10T13:05:37.568Z,8.95
2023-01-10T13:06:37.567Z,8.92
2023-01-10T13:07:37.526Z,8.95
2023-01-10T13:08:37.508Z,8.96
2023-01-10T13:09:37.511Z,8.98
2023-01-10T13:10:37.483Z,9.04
2023-01-10T13:11:37.487Z,8.99
2023-01-10T13:12:37.464Z,9.05
2023-01-10T13:13:37.426Z,9.04
2023-01-10T13:14:37.422Z,9.10
2023-01-10T13:15:37.423Z,9.04
2023-01-10T13:16:37.421Z,9.11
2023-01-10T13:17:37.423Z,9.10
2023-01-10T13:18:37.413Z,9.08
2023-01-10T13:19:37.364Z,9.11
2023-01-10T13:20:37.344Z,9.13
2023-01-10T13:21:37.334Z,9.14
2023-01-10T13:22:37.352Z,9.11
2023-01-10T13:23:37.324Z,9.10
2023-01-10T13:24:37.285Z,9.08
2023-01-10T13:25:37.266Z,9.14
2023-01-10T13:26:37.285Z,9.14
2023-01-10T13:27:37.264Z,9.11
2023-01-10T13:28:37.325Z,9.14
2023-01-10T13:29:37.227Z,9.14
2023-01-10T13:30:37.263Z,9.11
2023-01-10T13:31:37.204Z,9.11
2023-01-10T13:32:37.241Z,9.13
2023-01-10T13:33:37.185Z,9.10
2023-01-10T13:34:37.168Z,9.11
2023-01-10T13:35:37.143Z,9.13
2023-01-10T13:36:37.134Z,9.11
2023-01-10T13:37:37.124Z,9.05
2023-01-10T13:38:37.122Z,9.08
2023-01-10T13:39:37.084Z,9.11
2023-01-10T13:40:37.165Z,9.10
2023-01-10T13:41:37.076Z,9.04
2023-01-10T13:42:37.094Z,9.08
2023-01-10T13:43:37.089Z,9.01
2023-01-10T13:44:37.035Z,8.99
2023-01-10T13:45:37.022Z,8.99
2023-01-10T13:46:37.074Z,8.98
2023-01-10T13:47:37.026Z,8.98
2023-01-10T13:48:37.031Z,8.96
2023-01-10T13:49:36.961Z,8.96
2023-01-10T13:50:36.931Z,8.96
2023-01-10T13:51:36.980Z,8.96
2023-01-10T13:52:36.943Z,8.95
2023-01-10T13:53:36.920Z,8.96
2023-01-10T13:54:36.930Z,8.96
2023-01-10T13:55:36.887Z,8.94
2023-01-10T13:56:36.920Z,8.96
2023-01-10T13:57:36.860Z,8.96
2023-01-10T13:58:36.879Z,8.99
2023-01-10T13:59:36.859Z,8.95
2023-01-10T14:00:36.840Z,8.95
2023-01-10T14:01:36.924Z,8.96
2023-01-10T14:02:36.831Z,8.95
2023-01-10T14:03:36.779Z,8.95
2023-01-10T14:04:36.842Z,8.89
2023-01-10T14:05:36.755Z,8.89
2023-01-10T14:06:36.759Z,8.87
2023-01-10T14:07:36.761Z,8.86
2023-01-10T14:08:36.734Z,8.86
2023-01-10T14:09:36.786Z,8.86
2023-01-10T14:10:36.690Z,8.86
2023-01-10T14:11:36.722Z,8.86
2023-01-10T14:12:36.688Z,8.86
2023-01-10T14:13:36.684Z,8.80
2023-01-10T14:14:36.658Z,8.80
2023-01-10T14:15:36.743Z,8.81
2023-01-10T14:16:36.624Z,8.81
2023-01-10T14:17:36.640Z,8.76
2023-01-10T14:18:36.592Z,8.76
2023-01-10T14:19:36.592Z,8.74
2023-01-10T14:20:36.571Z,8.77
2023-01-10T14:21:36.560Z,8.77
2023-01-10T14:22:36.596Z,8.74
2023-01-10T14:23:36.660Z,8.74
2023-01-10T14:24:36.538Z,8.74
2023-01-10T14:25:36.526Z,8.71
2023-01-10T14:26:36.541Z,8.73
2023-01-10T14:27:36.630Z,8.70
2023-01-10T14:28:36.524Z,8.71
2023-01-10T14:29:36.489Z,8.68
2023-01-10T14:30:36.568Z,8.68
2023-01-10T14:31:36.444Z,8.65
2023-01-10T14:32:36.444Z,8.66
2023-01-10T14:33:36.423Z,8.63
2023-01-10T14:34:36.435Z,8.66
2023-01-10T14:35:36.377Z,8.66
2023-01-10T14:36:36.402Z,8.63
2023-01-10T14:37:36.361Z,8.62
2023-01-10T14:38:36.429Z,8.63
2023-01-10T14:39:36.353Z,8.63
2023-01-10T14:40:36.324Z,8.61
2023-01-10T14:41:36.292Z,8.63
2023-01-10T14:42:36.309Z,8.63
2023-01-10T14:43:36.284Z,8.62
2023-01-10T14:44:36.273Z,8.59
2023-01-10T14:45:36.263Z,8.58
2023-01-10T14:46:36.299Z,8.55
2023-01-10T14:47:36.261Z,8.56
2023-01-10T14:48:36.244Z,8.56
2023-01-10T14:49:36.208Z,8.52
2023-01-10T14:50:36.213Z,8.48
2023-01-10T14:51:36.178Z,8.48
2023-01-10T14:52:36.196Z,8.47
2023-01-10T14:53:36.159Z,8.50
2023-01-10T14:54:36.232Z,8.50
2023-01-10T14:55:36.149Z,8.48
2023-01-10T14:56:36.119Z,8.45
2023-01-10T14:57:36.114Z,8.44
2023-01-10T14:58:36.128Z,8.44
2023-01-10T14:59:36.100Z,8.43
2023-01-10T15:00:36.072Z,8.44
2023-01-10T15:01:36.279Z,8.44
2023-01-10T15:02:36.990Z,8.40
2023-01-10T15:03:36.028Z,8.41
2023-01-10T15:04:36.083Z,8.41
2023-01-10T15:05:36.049Z,8.38
2023-01-10T15:06:36.010Z,8.37
2023-01-10T15:07:36.003Z,8.40
2023-01-10T15:08:35.977Z,8.41
2023-01-10T15:09:35.993Z,8.34
2023-01-10T15:10:36.001Z,8.37
2023-01-10T15:11:35.951Z,8.30
2023-01-10T15:12:35.961Z,8.30